This is the latest recevied weather packets stored in our database for station/object W4ZHA. If no packets are shown the sender has not sent any weather packets the latest 10 day(s).
| Time | Temp. | Humidity | Pressure | Rain* | Wind** | Luminosity | Snow |
|---|---|---|---|---|---|---|---|
| 1788113330 | 31.67° C | 54% | 1021.8 hPa | 0 mm | - | 130 W/m² | - |
| 1788113029 | 32.78° C | 53% | 1021.8 hPa | 0 mm | - | 147 W/m² | - |
| 1788112728 | 32.78° C | 53% | 1021.3 hPa | 0 mm | - | 473 W/m² | - |
| 1788112423 | 31.11° C | 55% | 1021.8 hPa | 0 mm | - | 466 W/m² | - |
| 1788112123 | 31.67° C | 55% | 1021.8 hPa | 0 mm | - | 473 W/m² | - |
| 1788111818 | 32.78° C | 53% | 1022.1 hPa | 0 mm | - | 465 W/m² | - |
| 1788111513 | 31.67° C | 55% | 1021.8 hPa | 0 mm | - | 461 W/m² | - |
| 1788111208 | 32.22° C | 54% | 1021.8 hPa | 0 mm | - | 452 W/m² | - |
| 1788110899 | 32.78° C | 54% | 1022.1 hPa | 0 mm | - | 455 W/m² | - |
| 1788110596 | 32.22° C | 53% | 1022.1 hPa | 0 mm | - | 467 W/m² | - |
| 1788110291 | 31.67° C | 55% | 1022.1 hPa | 0 mm | - | 456 W/m² | - |
| 1788109986 | 31.67° C | 56% | 1022.4 hPa | 0 mm | - | 456 W/m² | - |
| 1788109681 | 31.11° C | 57% | 1022.4 hPa | 0 mm | - | 196 W/m² | - |
| 1788109380 | 30.56° C | 55% | 1022.4 hPa | 0 mm | - | 459 W/m² | - |
| 1788109079 | 31.11° C | 57% | 1022.4 hPa | 0 mm | - | 447 W/m² | - |
| 1788108775 | 30° C | 60% | 1022.4 hPa | 0 mm | - | 455 W/m² | - |
| 1788108471 | 30° C | 58% | 1022.8 hPa | 0 mm | - | 180 W/m² | - |
| 1788108167 | 30.56° C | 57% | 1022.8 hPa | 0 mm | - | 429 W/m² | - |
| 1788107863 | 30.56° C | 57% | 1022.8 hPa | 0 mm | - | 438 W/m² | - |
| 1788107559 | 30.56° C | 57% | 1022.8 hPa | 0 mm | - | 432 W/m² | - |
| 1788107253 | 29.44° C | 60% | 1022.8 hPa | 0 mm | - | 423 W/m² | - |
| 1788106950 | 28.89° C | 62% | 1022.8 hPa | 0 mm | - | 108 W/m² | - |
| 1788106645 | 28.33° C | 61% | 1022.8 hPa | 0 mm | - | 90 W/m² | - |
| 1788106339 | 28.89° C | 62% | 1023.1 hPa | 0 mm | - | 386 W/m² | - |
| 1788106035 | 28.89° C | 62% | 1023.1 hPa | 0 mm | - | 360 W/m² | - |
* Rain latest hour (hover to see other rain measurements)
** Current wind speed in m/s (hover to see current wind gust speed)